createdAt,value
2023-04-02T00:01:36.751Z,95.49
2023-04-02T00:04:08.974Z,95.65
2023-04-02T00:06:45.051Z,95.41
2023-04-02T00:09:27.603Z,95.80
2023-04-02T00:11:55.884Z,95.89
2023-04-02T00:14:27.035Z,95.95
2023-04-02T00:16:56.729Z,95.59
2023-04-02T00:19:31.552Z,95.70
2023-04-02T00:22:02.013Z,95.89
2023-04-02T00:24:30.243Z,95.95
2023-04-02T00:26:58.391Z,95.64
2023-04-02T00:29:26.352Z,95.31
2023-04-02T00:31:55.543Z,95.53
2023-04-02T00:34:33.085Z,95.66
2023-04-02T00:37:03.172Z,95.42
2023-04-02T00:39:33.940Z,95.50
2023-04-02T00:42:05.804Z,95.73
2023-04-02T00:44:37.872Z,95.60
2023-04-02T00:47:14.945Z,95.72
2023-04-02T00:49:44.051Z,95.91
2023-04-02T00:52:16.851Z,96.07
2023-04-02T00:54:49.142Z,96.00
2023-04-02T00:57:23.236Z,95.75
2023-04-02T00:59:57.701Z,95.30
2023-04-02T01:02:29.571Z,95.54
2023-04-02T01:04:59.874Z,95.39
2023-04-02T01:07:50.031Z,95.58
2023-04-02T01:10:52.282Z,95.85
2023-04-02T01:13:27.726Z,95.73
2023-04-02T01:16:01.311Z,96.00
2023-04-02T01:18:39.739Z,96.11
2023-04-02T01:21:32.452Z,96.28
2023-04-02T01:24:06.000Z,95.95
2023-04-02T01:26:55.558Z,95.90
2023-04-02T01:29:28.550Z,95.38
2023-04-02T01:31:59.431Z,95.68
2023-04-02T01:34:29.259Z,95.56
2023-04-02T01:37:10.397Z,95.39
2023-04-02T01:39:52.014Z,95.51
2023-04-02T01:42:25.651Z,95.74
2023-04-02T01:45:01.857Z,95.98
2023-04-02T01:47:29.973Z,95.98
2023-04-02T01:50:00.018Z,95.98
2023-04-02T01:52:37.791Z,95.92
2023-04-02T01:55:07.650Z,95.95
2023-04-02T01:57:36.007Z,96.05
2023-04-02T02:00:12.409Z,96.17
2023-04-02T02:02:42.175Z,95.87
2023-04-02T02:05:14.580Z,95.75
2023-04-02T02:07:45.566Z,96.15
2023-04-02T02:10:18.242Z,95.90
2023-04-02T02:12:48.030Z,95.76
2023-04-02T02:15:19.449Z,96.09
2023-04-02T02:17:47.849Z,95.82
2023-04-02T02:20:16.601Z,96.13
2023-04-02T02:22:46.836Z,95.73
2023-04-02T02:25:18.481Z,95.86
2023-04-02T02:28:03.732Z,95.49
2023-04-02T02:30:36.356Z,95.52
2023-04-02T02:33:10.033Z,95.53
2023-04-02T02:35:44.230Z,95.57
2023-04-02T02:38:28.053Z,95.71
2023-04-02T02:41:05.774Z,95.66
2023-04-02T02:43:35.017Z,95.85
2023-04-02T02:46:05.559Z,96.01
2023-04-02T02:48:38.189Z,95.86
2023-04-02T02:51:11.736Z,95.75
2023-04-02T02:53:50.198Z,95.55
2023-04-02T02:56:19.647Z,95.36
2023-04-02T02:58:47.438Z,95.17
2023-04-02T03:01:24.367Z,95.28
2023-04-02T03:03:56.363Z,95.13
2023-04-02T03:06:26.227Z,95.30
2023-04-02T03:09:04.960Z,95.41
2023-04-02T03:11:40.196Z,95.35
2023-04-02T03:14:21.299Z,95.66
2023-04-02T03:16:55.767Z,95.87
2023-04-02T03:19:30.601Z,96.00
2023-04-02T03:22:07.602Z,95.33
2023-04-02T03:24:47.995Z,94.69
2023-04-02T03:27:19.340Z,94.78
2023-04-02T03:29:58.576Z,94.64
2023-04-02T03:32:32.588Z,94.70
2023-04-02T03:35:06.546Z,94.43
2023-04-02T03:37:42.151Z,94.52
2023-04-02T03:40:16.454Z,94.84
2023-04-02T03:42:49.764Z,94.64
2023-04-02T03:45:22.888Z,95.05
2023-04-02T03:47:57.485Z,95.35
2023-04-02T03:50:29.838Z,95.16
2023-04-02T03:53:01.144Z,95.53
2023-04-02T03:55:31.014Z,95.72
2023-04-02T03:58:03.282Z,95.57
2023-04-02T04:00:38.051Z,95.55
2023-04-02T04:03:13.911Z,95.50
2023-04-02T04:05:49.445Z,95.50
2023-04-02T04:08:20.880Z,95.53
2023-04-02T04:10:52.870Z,94.93
2023-04-02T04:13:30.076Z,95.01
2023-04-02T04:16:02.628Z,95.04
2023-04-02T04:18:37.855Z,94.89
2023-04-02T04:21:17.136Z,94.80
2023-04-02T04:23:51.443Z,94.97
2023-04-02T04:26:25.553Z,95.06
2023-04-02T04:29:09.711Z,95.17
2023-04-02T04:31:47.152Z,94.89
2023-04-02T04:34:19.950Z,94.69
2023-04-02T04:36:54.938Z,94.72
2023-04-02T04:39:34.772Z,94.61
2023-04-02T04:42:05.988Z,94.05
2023-04-02T04:44:41.291Z,94.57
2023-04-02T04:47:16.453Z,94.64
2023-04-02T04:49:48.807Z,98.15
2023-04-02T04:52:21.911Z,95.70
2023-04-02T04:54:52.172Z,94.91
2023-04-02T04:57:32.464Z,93.13
2023-04-02T05:00:08.067Z,92.34
2023-04-02T05:02:46.488Z,92.31
2023-04-02T05:05:26.245Z,93.73
2023-04-02T05:08:01.321Z,91.50
2023-04-02T05:10:37.422Z,91.18
2023-04-02T05:13:10.532Z,90.55
2023-04-02T05:15:42.866Z,91.54
2023-04-02T05:18:24.799Z,91.45
2023-04-02T05:21:01.409Z,91.48
2023-04-02T05:23:36.039Z,92.13
2023-04-02T05:26:10.411Z,91.98
2023-04-02T05:28:44.881Z,91.85
2023-04-02T05:31:19.964Z,91.04
2023-04-02T05:33:50.306Z,91.71
2023-04-02T05:36:22.225Z,91.03
2023-04-02T05:38:54.855Z,91.50
2023-04-02T05:41:32.273Z,91.42
2023-04-02T05:44:08.952Z,91.00
2023-04-02T05:46:42.630Z,91.93
2023-04-02T05:49:18.794Z,90.39
2023-04-02T05:51:53.749Z,90.90
2023-04-02T05:54:27.908Z,91.30
2023-04-02T05:57:04.107Z,90.15
2023-04-02T05:59:35.245Z,90.99
2023-04-02T06:02:07.942Z,90.69
2023-04-02T06:04:46.438Z,90.95
2023-04-02T06:07:19.137Z,90.90
2023-04-02T06:09:57.365Z,91.16
2023-04-02T06:12:30.872Z,90.85
2023-04-02T06:15:00.307Z,90.68
2023-04-02T06:17:31.540Z,90.24
2023-04-02T06:20:02.556Z,90.54
2023-04-02T06:22:37.472Z,90.10
2023-04-02T06:25:14.605Z,91.31
2023-04-02T06:27:45.782Z,90.08
2023-04-02T06:30:19.673Z,90.53
2023-04-02T06:32:50.599Z,90.77
2023-04-02T06:35:19.820Z,91.29
2023-04-02T06:38:02.354Z,91.18
2023-04-02T06:40:41.733Z,91.52
2023-04-02T06:43:36.380Z,91.16
2023-04-02T06:46:23.237Z,91.63
2023-04-02T06:49:18.697Z,91.32
2023-04-02T06:51:51.920Z,91.16
2023-04-02T06:54:22.474Z,90.90
2023-04-02T06:56:57.180Z,91.05
2023-04-02T06:59:32.918Z,91.37
2023-04-02T07:02:06.627Z,91.47
2023-04-02T07:04:35.470Z,92.15
2023-04-02T07:07:04.220Z,90.91
2023-04-02T07:09:37.726Z,91.31
2023-04-02T07:12:12.451Z,90.98
2023-04-02T07:14:40.870Z,91.62
2023-04-02T07:17:16.837Z,91.14
2023-04-02T07:19:49.359Z,91.68
2023-04-02T07:22:19.901Z,91.00
2023-04-02T07:24:53.429Z,91.02
2023-04-02T07:27:21.307Z,92.70
2023-04-02T07:29:49.144Z,90.72
2023-04-02T07:32:17.376Z,91.04
2023-04-02T07:34:45.420Z,91.65
2023-04-02T07:37:15.223Z,90.92
2023-04-02T07:39:43.106Z,90.64
2023-04-02T07:42:12.318Z,91.02
2023-04-02T07:44:40.042Z,91.31
2023-04-02T07:47:08.632Z,92.43
2023-04-02T07:49:36.494Z,90.83
2023-04-02T07:52:04.461Z,90.20
2023-04-02T07:54:32.366Z,90.75
2023-04-02T07:57:00.267Z,89.95
2023-04-02T07:59:29.539Z,91.39
2023-04-02T08:01:57.894Z,90.20
2023-04-02T08:04:25.947Z,90.17
2023-04-02T08:06:53.940Z,90.12
2023-04-02T08:09:21.952Z,90.91
2023-04-02T08:11:49.801Z,90.98
2023-04-02T08:14:17.684Z,91.19
2023-04-02T08:16:49.236Z,90.96
2023-04-02T08:19:17.355Z,91.17
2023-04-02T08:21:45.685Z,90.52
2023-04-02T08:24:13.730Z,91.33
2023-04-02T08:26:43.038Z,91.05
2023-04-02T08:29:12.442Z,91.36
2023-04-02T08:31:40.373Z,91.17
2023-04-02T08:34:09.657Z,91.77
2023-04-02T08:36:38.626Z,90.68
2023-04-02T08:39:10.914Z,91.11
2023-04-02T08:41:43.082Z,90.48
2023-04-02T08:44:20.979Z,91.62
2023-04-02T08:46:53.097Z,90.22
2023-04-02T08:49:29.159Z,89.26
2023-04-02T08:51:57.115Z,88.46
2023-04-02T08:54:28.105Z,89.90
2023-04-02T08:56:59.612Z,89.77
2023-04-02T08:59:33.710Z,89.75
2023-04-02T09:02:13.248Z,89.54
2023-04-02T09:04:42.658Z,90.05
2023-04-02T09:07:13.805Z,89.88
2023-04-02T09:09:41.843Z,89.89
2023-04-02T09:12:19.302Z,90.13
2023-04-02T09:14:59.566Z,89.34
2023-04-02T09:17:29.208Z,89.56
2023-04-02T09:20:06.413Z,89.36
2023-04-02T09:22:35.892Z,89.50
2023-04-02T09:25:06.442Z,89.83
2023-04-02T09:27:36.418Z,89.04
2023-04-02T09:30:13.739Z,89.01
2023-04-02T09:32:50.089Z,88.86
2023-04-02T09:35:27.181Z,89.12
2023-04-02T09:38:20.474Z,88.79
2023-04-02T09:40:52.180Z,88.03
2023-04-02T09:43:22.596Z,89.20
2023-04-02T09:45:59.412Z,89.96
2023-04-02T09:48:31.360Z,89.50
2023-04-02T09:51:08.171Z,89.72
2023-04-02T09:53:37.426Z,88.49
2023-04-02T09:56:10.039Z,88.96
2023-04-02T09:58:37.935Z,87.71
2023-04-02T10:01:08.504Z,88.97
2023-04-02T10:03:36.644Z,88.45
2023-04-02T10:06:11.084Z,88.30
2023-04-02T10:08:41.466Z,88.18
2023-04-02T10:11:11.968Z,88.13
2023-04-02T10:13:49.987Z,88.65
2023-04-02T10:16:24.922Z,88.90
2023-04-02T10:18:56.860Z,88.28
2023-04-02T10:21:27.785Z,87.51
2023-04-02T10:23:58.319Z,87.57
2023-04-02T10:26:43.418Z,87.78
2023-04-02T10:29:25.044Z,87.68
2023-04-02T10:32:00.587Z,87.64
2023-04-02T10:34:37.789Z,88.00
2023-04-02T10:37:26.689Z,88.16
2023-04-02T10:39:58.405Z,88.03
2023-04-02T10:42:32.168Z,88.04
2023-04-02T10:45:04.809Z,88.29
2023-04-02T10:47:41.139Z,87.59
2023-04-02T10:50:29.431Z,88.38
2023-04-02T10:53:05.437Z,87.37
2023-04-02T10:55:40.910Z,87.72
2023-04-02T10:58:19.356Z,87.68
2023-04-02T11:00:48.393Z,87.98
2023-04-02T11:03:24.316Z,87.93
2023-04-02T11:05:53.353Z,88.74
2023-04-02T11:08:27.324Z,88.95
2023-04-02T11:10:59.547Z,89.06
2023-04-02T11:13:32.369Z,88.90
2023-04-02T11:16:00.531Z,88.97
2023-04-02T11:18:34.141Z,88.70
2023-04-02T11:21:04.824Z,89.32
2023-04-02T11:23:36.825Z,89.09
2023-04-02T11:26:38.660Z,89.26
2023-04-02T11:29:15.735Z,89.02
2023-04-02T11:31:44.840Z,89.16
2023-04-02T11:34:37.141Z,88.77
2023-04-02T11:37:10.429Z,88.74
2023-04-02T11:39:57.251Z,88.46
2023-04-02T11:42:29.434Z,88.75
2023-04-02T11:45:01.117Z,89.03
2023-04-02T11:47:30.036Z,88.86
2023-04-02T11:50:01.302Z,88.96
2023-04-02T11:52:33.704Z,88.58
2023-04-02T11:55:22.269Z,88.36
2023-04-02T11:58:03.174Z,88.19
2023-04-02T12:01:01.176Z,88.08
2023-04-02T12:03:58.456Z,88.23
2023-04-02T12:06:39.686Z,88.34
2023-04-02T12:09:20.408Z,88.20
2023-04-02T12:11:51.047Z,88.22
2023-04-02T12:14:48.070Z,88.02
2023-04-02T12:17:19.624Z,88.22
2023-04-02T12:19:50.051Z,88.07
2023-04-02T12:22:22.926Z,87.96
2023-04-02T12:24:55.745Z,87.40
2023-04-02T12:27:27.661Z,87.49
2023-04-02T12:29:56.243Z,87.11
2023-04-02T12:32:29.927Z,87.30
2023-04-02T12:35:05.069Z,87.32
2023-04-02T12:37:33.324Z,87.01
2023-04-02T12:40:07.157Z,87.33
2023-04-02T12:42:37.099Z,87.14
2023-04-02T12:45:06.783Z,86.82
2023-04-02T12:47:34.945Z,86.74
2023-04-02T12:50:03.454Z,87.17
2023-04-02T12:52:32.667Z,87.26
2023-04-02T12:55:05.029Z,87.41
2023-04-02T12:57:40.684Z,86.73
2023-04-02T13:00:34.151Z,86.98
2023-04-02T13:03:17.379Z,87.39
2023-04-02T13:05:48.497Z,87.22
2023-04-02T13:08:19.817Z,86.95
2023-04-02T13:10:54.002Z,86.90
2023-04-02T13:13:28.222Z,86.52
2023-04-02T13:16:04.725Z,86.75
2023-04-02T13:18:34.318Z,86.92
2023-04-02T13:21:03.853Z,87.30
2023-04-02T13:23:35.175Z,86.50
2023-04-02T13:26:13.008Z,86.49
2023-04-02T13:28:41.032Z,86.68
2023-04-02T13:31:14.611Z,86.41
2023-04-02T13:33:42.545Z,86.50
2023-04-02T13:36:14.212Z,86.74
2023-04-02T13:38:42.321Z,86.62
2023-04-02T13:41:22.415Z,86.67
2023-04-02T13:43:51.083Z,86.88
2023-04-02T13:46:22.588Z,86.16
2023-04-02T13:48:51.300Z,86.46
2023-04-02T13:51:20.428Z,86.67
2023-04-02T13:53:50.392Z,87.08
2023-04-02T13:56:19.684Z,86.55
2023-04-02T13:58:47.412Z,86.02
2023-04-02T14:01:16.022Z,86.29
2023-04-02T14:03:45.448Z,86.29
2023-04-02T14:06:16.197Z,86.26
2023-04-02T14:08:55.836Z,85.83
2023-04-02T14:11:33.472Z,85.65
2023-04-02T14:14:18.050Z,85.24
2023-04-02T14:16:56.318Z,85.53
2023-04-02T14:19:46.322Z,85.08
2023-04-02T14:22:29.156Z,85.58
2023-04-02T14:25:07.655Z,85.83
2023-04-02T14:27:45.518Z,85.47
2023-04-02T14:30:19.449Z,85.32
2023-04-02T14:32:56.733Z,85.90
2023-04-02T14:35:34.812Z,85.69
2023-04-02T14:38:11.736Z,85.64
2023-04-02T14:40:43.933Z,84.92
2023-04-02T14:43:17.677Z,85.14
2023-04-02T14:45:57.376Z,85.60
2023-04-02T14:48:33.829Z,85.42
2023-04-02T14:51:06.283Z,85.32
2023-04-02T14:53:44.236Z,84.50
2023-04-02T14:56:14.900Z,84.80
2023-04-02T14:58:48.335Z,84.87
2023-04-02T15:01:22.695Z,84.59
2023-04-02T15:03:56.601Z,84.62
2023-04-02T15:06:27.341Z,85.17
2023-04-02T15:09:08.918Z,84.74
2023-04-02T15:11:39.166Z,84.40
2023-04-02T15:14:15.435Z,84.99
2023-04-02T15:16:47.634Z,85.07
2023-04-02T15:19:17.852Z,84.19
2023-04-02T15:21:59.523Z,84.75
2023-04-02T15:24:38.970Z,84.48
2023-04-02T15:27:25.470Z,84.78
2023-04-02T15:30:03.662Z,84.32
2023-04-02T15:32:38.660Z,84.66
2023-04-02T15:35:22.494Z,84.32
2023-04-02T15:37:59.632Z,83.89
2023-04-02T15:40:46.122Z,84.34
2023-04-02T15:43:20.662Z,84.04
2023-04-02T15:46:11.842Z,84.04
2023-04-02T15:48:59.975Z,84.48
2023-04-02T15:51:40.281Z,84.49
2023-04-02T15:54:20.630Z,84.96
2023-04-02T15:56:57.870Z,84.74
2023-04-02T15:59:57.517Z,84.79
2023-04-02T16:02:42.741Z,84.85
2023-04-02T16:05:19.061Z,84.13
2023-04-02T16:08:00.308Z,84.30
2023-04-02T16:10:41.816Z,84.45
2023-04-02T16:13:17.943Z,84.09
2023-04-02T16:15:52.106Z,84.17
2023-04-02T16:18:31.590Z,84.25
2023-04-02T16:21:02.939Z,84.20
2023-04-02T16:23:34.980Z,84.17
2023-04-02T16:26:10.617Z,83.88
2023-04-02T16:28:47.736Z,84.00
2023-04-02T16:31:26.336Z,83.56
2023-04-02T16:34:03.440Z,83.27
2023-04-02T16:36:50.083Z,83.02
2023-04-02T16:39:29.110Z,83.50
2023-04-02T16:42:05.384Z,82.87
2023-04-02T16:44:50.259Z,83.38
2023-04-02T16:47:46.100Z,82.85
2023-04-02T16:50:25.535Z,83.20
2023-04-02T16:52:59.127Z,82.39
2023-04-02T16:55:39.216Z,82.97
2023-04-02T16:58:22.893Z,82.98
2023-04-02T17:00:56.993Z,82.27
2023-04-02T17:03:48.598Z,82.08
2023-04-02T17:06:28.438Z,82.06
2023-04-02T17:09:04.324Z,82.24
2023-04-02T17:11:37.512Z,81.66
2023-04-02T17:14:07.411Z,82.52
2023-04-02T17:16:42.579Z,82.04
2023-04-02T17:19:12.776Z,82.07
2023-04-02T17:21:45.117Z,80.48
2023-04-02T17:24:20.659Z,81.17
2023-04-02T17:26:52.219Z,81.64
2023-04-02T17:29:24.574Z,81.30
2023-04-02T17:31:54.712Z,80.19
2023-04-02T17:34:23.978Z,81.09
2023-04-02T17:37:03.797Z,80.59
2023-04-02T17:39:39.291Z,80.25
2023-04-02T17:42:15.433Z,80.53
2023-04-02T17:44:52.112Z,80.40
2023-04-02T17:47:23.414Z,80.42
2023-04-02T17:50:05.680Z,81.02
2023-04-02T17:52:40.470Z,80.42
2023-04-02T17:55:18.664Z,79.59
2023-04-02T17:58:01.300Z,79.76
2023-04-02T18:00:58.525Z,80.40
2023-04-02T18:03:41.591Z,81.00
2023-04-02T18:06:16.999Z,80.91
2023-04-02T18:09:00.590Z,80.84
2023-04-02T18:11:35.634Z,80.75
2023-04-02T18:14:17.596Z,80.37
2023-04-02T18:16:51.332Z,81.25
2023-04-02T18:19:23.899Z,81.67
2023-04-02T18:21:59.882Z,81.11
2023-04-02T18:25:00.386Z,81.32
2023-04-02T18:27:43.313Z,81.85
2023-04-02T18:30:19.789Z,82.16
2023-04-02T18:33:19.905Z,82.19
2023-04-02T18:35:59.698Z,81.47
2023-04-02T18:38:30.691Z,81.49
2023-04-02T18:41:13.632Z,81.39
2023-04-02T18:43:51.888Z,81.84
2023-04-02T18:46:29.815Z,81.69
2023-04-02T18:49:01.149Z,81.71
2023-04-02T18:51:33.317Z,81.79
2023-04-02T18:54:11.794Z,81.97
2023-04-02T18:56:42.536Z,82.36
2023-04-02T18:59:31.540Z,82.12
2023-04-02T19:02:04.393Z,82.47
2023-04-02T19:04:33.847Z,82.40
2023-04-02T19:07:05.017Z,82.20
2023-04-02T19:09:35.874Z,81.66
2023-04-02T19:12:13.809Z,82.05
2023-04-02T19:14:41.813Z,82.24
2023-04-02T19:17:18.067Z,81.81
2023-04-02T19:19:56.926Z,82.20
2023-04-02T19:22:39.503Z,82.05
2023-04-02T19:25:30.058Z,82.65
2023-04-02T19:28:09.454Z,82.62
2023-04-02T19:30:47.554Z,82.27
2023-04-02T19:33:30.525Z,82.43
2023-04-02T19:36:01.828Z,82.17
2023-04-02T19:38:46.429Z,82.15
2023-04-02T19:41:27.265Z,81.92
2023-04-02T19:43:57.091Z,81.64
2023-04-02T19:46:27.124Z,81.94
2023-04-02T19:49:03.181Z,81.88
2023-04-02T19:51:31.155Z,81.46
2023-04-02T19:53:59.144Z,81.73
2023-04-02T19:56:27.849Z,81.68
2023-04-02T19:58:58.296Z,81.57
2023-04-02T20:01:28.147Z,81.93
2023-04-02T20:03:56.169Z,81.15
2023-04-02T20:06:24.144Z,81.59
2023-04-02T20:08:52.086Z,81.26
2023-04-02T20:11:20.206Z,80.82
2023-04-02T20:13:50.047Z,80.23
2023-04-02T20:16:19.644Z,80.33
2023-04-02T20:18:47.673Z,80.02
2023-04-02T20:21:15.734Z,79.95
2023-04-02T20:23:43.689Z,80.02
2023-04-02T20:26:12.731Z,80.35
2023-04-02T20:28:40.967Z,80.75
2023-04-02T20:31:11.229Z,80.93
2023-04-02T20:33:40.841Z,81.09
2023-04-02T20:36:10.758Z,81.22
2023-04-02T20:38:38.765Z,81.26
2023-04-02T20:41:08.231Z,81.40
2023-04-02T20:43:37.456Z,81.19
2023-04-02T20:46:08.919Z,81.11
2023-04-02T20:48:37.654Z,81.23
2023-04-02T20:51:08.448Z,81.43
2023-04-02T20:53:37.903Z,81.98
2023-04-02T20:56:06.705Z,82.35
2023-04-02T20:58:35.450Z,82.56
2023-04-02T21:01:08.583Z,82.77
2023-04-02T21:03:36.601Z,82.73
2023-04-02T21:06:06.066Z,83.02
2023-04-02T21:08:33.955Z,83.45
2023-04-02T21:11:06.531Z,83.60
2023-04-02T21:13:36.761Z,83.77
2023-04-02T21:16:05.995Z,83.86
2023-04-02T21:18:33.980Z,83.83
2023-04-02T21:21:04.010Z,84.78
2023-04-02T21:23:34.459Z,84.90
2023-04-02T21:26:06.279Z,84.75
2023-04-02T21:28:34.517Z,85.45
2023-04-02T21:31:04.500Z,85.13
2023-04-02T21:33:36.219Z,85.72
2023-04-02T21:36:08.414Z,86.06
2023-04-02T21:38:38.469Z,85.66
2023-04-02T21:41:17.183Z,85.81
2023-04-02T21:43:45.968Z,86.16
2023-04-02T21:46:13.928Z,85.98
2023-04-02T21:48:41.957Z,85.80
2023-04-02T21:51:11.886Z,85.68
2023-04-02T21:53:42.169Z,85.77
2023-04-02T21:56:13.186Z,85.66
2023-04-02T21:58:41.576Z,85.72
2023-04-02T22:01:16.837Z,85.81
2023-04-02T22:03:52.402Z,86.38
2023-04-02T22:06:21.636Z,86.68
2023-04-02T22:08:54.318Z,86.86
2023-04-02T22:11:24.277Z,86.84
2023-04-02T22:13:52.262Z,86.77
2023-04-02T22:16:22.276Z,86.61
2023-04-02T22:18:51.445Z,86.74
2023-04-02T22:21:20.338Z,87.03
2023-04-02T22:23:50.363Z,86.70
2023-04-02T22:26:20.069Z,86.99
2023-04-02T22:28:48.222Z,87.23
2023-04-02T22:31:18.523Z,86.95
2023-04-02T22:33:47.627Z,87.43
2023-04-02T22:36:17.035Z,87.22
2023-04-02T22:38:44.701Z,87.20
2023-04-02T22:41:15.549Z,87.49
2023-04-02T22:43:44.992Z,88.04
2023-04-02T22:46:14.528Z,88.32
2023-04-02T22:48:42.972Z,88.61
2023-04-02T22:51:12.244Z,89.11
2023-04-02T22:53:41.560Z,88.76
2023-04-02T22:56:09.676Z,88.48
2023-04-02T22:58:39.508Z,88.99
2023-04-02T23:01:09.595Z,88.77
2023-04-02T23:03:37.492Z,88.99
2023-04-02T23:06:07.466Z,88.61
2023-04-02T23:08:35.512Z,88.70
2023-04-02T23:11:04.647Z,88.83
2023-04-02T23:13:33.076Z,88.61
2023-04-02T23:16:03.378Z,88.77
2023-04-02T23:18:32.907Z,89.07
2023-04-02T23:21:01.178Z,88.78
2023-04-02T23:23:29.384Z,88.94
2023-04-02T23:26:07.441Z,88.77
2023-04-02T23:28:36.697Z,88.62
2023-04-02T23:31:08.292Z,88.71
2023-04-02T23:33:36.457Z,88.82
2023-04-02T23:36:08.841Z,88.50
2023-04-02T23:38:36.864Z,88.47
2023-04-02T23:41:04.954Z,88.45
2023-04-02T23:43:33.004Z,88.46
2023-04-02T23:46:01.065Z,88.21
2023-04-02T23:48:30.226Z,88.15
2023-04-02T23:50:58.101Z,88.05
2023-04-02T23:53:26.135Z,87.76
2023-04-02T23:55:54.011Z,87.43
2023-04-02T23:58:21.781Z,87.12
